sensor_id;sensor_type;location;lat;lon;timestamp;pressure;altitude;pressure_sealevel;temperature;humidity
16664;BME280;8445;51.270;9.434;2022-09-06T00:00:17;99669.53;;;21.63;50.12
16664;BME280;8445;51.270;9.434;2022-09-06T00:02:43;99672.91;;;21.57;48.06
16664;BME280;8445;51.270;9.434;2022-09-06T00:05:11;99665.84;;;21.56;48.24
16664;BME280;8445;51.270;9.434;2022-09-06T00:07:37;99666.50;;;21.58;48.75
16664;BME280;8445;51.270;9.434;2022-09-06T00:10:04;99671.94;;;21.73;47.74
16664;BME280;8445;51.270;9.434;2022-09-06T00:12:31;99674.19;;;21.69;47.94
16664;BME280;8445;51.270;9.434;2022-09-06T00:14:57;99672.53;;;21.60;48.61
16664;BME280;8445;51.270;9.434;2022-09-06T00:17:23;99671.19;;;21.64;48.61
16664;BME280;8445;51.270;9.434;2022-09-06T00:19:48;99664.13;;;21.63;48.32
16664;BME280;8445;51.270;9.434;2022-09-06T00:22:14;99667.97;;;21.60;48.54
16664;BME280;8445;51.270;9.434;2022-09-06T00:24:40;99664.81;;;21.57;48.60
16664;BME280;8445;51.270;9.434;2022-09-06T00:27:07;99668.69;;;21.54;48.67
16664;BME280;8445;51.270;9.434;2022-09-06T00:29:34;99667.22;;;21.52;49.49
16664;BME280;8445;51.270;9.434;2022-09-06T00:32:00;99661.19;;;21.50;48.98
16664;BME280;8445;51.270;9.434;2022-09-06T00:34:27;99669.97;;;21.43;49.30
16664;BME280;8445;51.270;9.434;2022-09-06T00:36:53;99665.44;;;21.44;49.16
16664;BME280;8445;51.270;9.434;2022-09-06T00:39:19;99671.00;;;21.42;49.15
16664;BME280;8445;51.270;9.434;2022-09-06T00:41:45;99676.06;;;21.37;49.28
16664;BME280;8445;51.270;9.434;2022-09-06T00:44:11;99676.63;;;21.32;49.25
16664;BME280;8445;51.270;9.434;2022-09-06T00:46:41;99680.81;;;21.35;51.49
16664;BME280;8445;51.270;9.434;2022-09-06T00:49:23;99677.81;;;21.30;52.60
16664;BME280;8445;51.270;9.434;2022-09-06T00:52:00;99676.84;;;21.23;53.01
16664;BME280;8445;51.270;9.434;2022-09-06T00:54:28;99672.56;;;21.13;49.66
16664;BME280;8445;51.270;9.434;2022-09-06T00:56:56;99674.25;;;21.14;49.88
16664;BME280;8445;51.270;9.434;2022-09-06T00:59:26;99670.91;;;21.12;51.72
16664;BME280;8445;51.270;9.434;2022-09-06T01:01:53;99667.06;;;21.07;49.90
16664;BME280;8445;51.270;9.434;2022-09-06T01:04:19;99663.22;;;21.01;49.87
16664;BME280;8445;51.270;9.434;2022-09-06T01:14:47;99652.63;;;20.68;54.27
16664;BME280;8445;51.270;9.434;2022-09-06T01:20:30;99659.59;;;20.54;57.99
16664;BME280;8445;51.270;9.434;2022-09-06T01:26:38;99657.81;;;20.38;59.74
16664;BME280;8445;51.270;9.434;2022-09-06T01:29:43;99641.38;;;20.33;58.64
16664;BME280;8445;51.270;9.434;2022-09-06T01:32:25;99641.75;;;20.13;53.38
16664;BME280;8445;51.270;9.434;2022-09-06T01:38:00;99640.16;;;19.95;50.81
16664;BME280;8445;51.270;9.434;2022-09-06T01:40:27;99633.59;;;19.90;51.20
16664;BME280;8445;51.270;9.434;2022-09-06T01:42:55;99630.41;;;19.86;52.41
16664;BME280;8445;51.270;9.434;2022-09-06T01:48:38;99620.03;;;19.91;58.42
16664;BME280;8445;51.270;9.434;2022-09-06T01:54:27;99617.47;;;20.06;61.40
16664;BME280;8445;51.270;9.434;2022-09-06T01:57:21;99611.53;;;20.19;59.09
16664;BME280;8445;51.270;9.434;2022-09-06T02:00:11;99615.75;;;20.13;61.10
16664;BME280;8445;51.270;9.434;2022-09-06T02:05:57;99614.25;;;20.03;53.91
16664;BME280;8445;51.270;9.434;2022-09-06T02:08:40;99618.44;;;20.13;59.34
16664;BME280;8445;51.270;9.434;2022-09-06T02:11:09;99611.59;;;20.03;52.15
16664;BME280;8445;51.270;9.434;2022-09-06T02:13:51;99612.22;;;20.13;59.95
16664;BME280;8445;51.270;9.434;2022-09-06T02:16:24;99611.09;;;20.07;53.26
16664;BME280;8445;51.270;9.434;2022-09-06T02:21:53;99602.84;;;20.09;56.07
16664;BME280;8445;51.270;9.434;2022-09-06T02:24:29;99604.50;;;20.18;54.65
16664;BME280;8445;51.270;9.434;2022-09-06T02:26:56;99597.44;;;20.17;52.24
16664;BME280;8445;51.270;9.434;2022-09-06T02:29:22;99602.47;;;20.20;53.79
16664;BME280;8445;51.270;9.434;2022-09-06T02:31:58;99605.13;;;20.28;55.56
16664;BME280;8445;51.270;9.434;2022-09-06T02:34:26;99603.13;;;20.22;54.76
16664;BME280;8445;51.270;9.434;2022-09-06T02:36:54;99599.44;;;20.23;52.25
16664;BME280;8445;51.270;9.434;2022-09-06T02:39:20;99601.09;;;20.24;52.26
16664;BME280;8445;51.270;9.434;2022-09-06T02:41:46;99601.78;;;20.26;52.37
16664;BME280;8445;51.270;9.434;2022-09-06T02:44:13;99606.31;;;20.26;52.61
16664;BME280;8445;51.270;9.434;2022-09-06T02:46:39;99602.13;;;20.23;52.31
16664;BME280;8445;51.270;9.434;2022-09-06T02:49:05;99596.44;;;20.18;52.32
16664;BME280;8445;51.270;9.434;2022-09-06T02:51:38;99594.72;;;20.25;54.37
16664;BME280;8445;51.270;9.434;2022-09-06T02:54:06;99584.34;;;20.14;52.84
16664;BME280;8445;51.270;9.434;2022-09-06T02:56:32;99587.72;;;20.08;52.42
16664;BME280;8445;51.270;9.434;2022-09-06T02:58:59;99582.91;;;20.03;53.00
16664;BME280;8445;51.270;9.434;2022-09-06T03:01:25;99580.75;;;19.98;53.11
16664;BME280;8445;51.270;9.434;2022-09-06T03:03:51;99581.41;;;20.01;53.24
16664;BME280;8445;51.270;9.434;2022-09-06T03:06:17;99572.69;;;19.98;53.34
16664;BME280;8445;51.270;9.434;2022-09-06T03:08:43;99585.78;;;20.02;53.15
16664;BME280;8445;51.270;9.434;2022-09-06T03:11:09;99582.72;;;20.05;53.43
16664;BME280;8445;51.270;9.434;2022-09-06T03:13:35;99581.88;;;20.04;54.77
16664;BME280;8445;51.270;9.434;2022-09-06T03:16:01;99579.88;;;20.06;53.85
16664;BME280;8445;51.270;9.434;2022-09-06T03:18:29;99583.69;;;20.12;54.04
16664;BME280;8445;51.270;9.434;2022-09-06T03:20:55;99576.81;;;20.18;53.56
16664;BME280;8445;51.270;9.434;2022-09-06T03:23:25;99579.31;;;20.19;54.00
16664;BME280;8445;51.270;9.434;2022-09-06T03:25:51;99577.13;;;20.23;54.06
16664;BME280;8445;51.270;9.434;2022-09-06T03:28:18;99569.84;;;20.32;54.63
16664;BME280;8445;51.270;9.434;2022-09-06T03:30:46;99575.88;;;20.34;54.26
16664;BME280;8445;51.270;9.434;2022-09-06T03:33:13;99570.81;;;20.39;53.96
16664;BME280;8445;51.270;9.434;2022-09-06T03:35:46;99564.56;;;20.47;55.69
16664;BME280;8445;51.270;9.434;2022-09-06T03:38:12;99570.47;;;20.42;53.94
16664;BME280;8445;51.270;9.434;2022-09-06T03:40:38;99558.38;;;20.46;53.95
16664;BME280;8445;51.270;9.434;2022-09-06T03:43:04;99562.72;;;20.47;54.07
16664;BME280;8445;51.270;9.434;2022-09-06T03:45:30;99554.00;;;20.45;53.83
16664;BME280;8445;51.270;9.434;2022-09-06T03:47:55;99556.38;;;20.40;54.24
16664;BME280;8445;51.270;9.434;2022-09-06T03:50:21;99544.13;;;20.37;54.50
16664;BME280;8445;51.270;9.434;2022-09-06T03:52:47;99559.41;;;20.37;54.25
16664;BME280;8445;51.270;9.434;2022-09-06T03:55:13;99554.56;;;20.32;54.09
16664;BME280;8445;51.270;9.434;2022-09-06T03:57:39;99557.97;;;20.26;54.13
16664;BME280;8445;51.270;9.434;2022-09-06T04:00:05;99553.66;;;20.17;54.50
16664;BME280;8445;51.270;9.434;2022-09-06T04:02:37;99559.22;;;20.07;54.47
16664;BME280;8445;51.270;9.434;2022-09-06T04:05:03;99563.97;;;19.96;54.66
16664;BME280;8445;51.270;9.434;2022-09-06T04:07:29;99556.75;;;19.89;54.98
16664;BME280;8445;51.270;9.434;2022-09-06T04:09:55;99553.06;;;19.81;54.94
16664;BME280;8445;51.270;9.434;2022-09-06T04:12:20;99549.56;;;19.73;55.31
16664;BME280;8445;51.270;9.434;2022-09-06T04:14:46;99543.22;;;19.65;55.20
16664;BME280;8445;51.270;9.434;2022-09-06T04:17:12;99549.13;;;19.61;55.31
16664;BME280;8445;51.270;9.434;2022-09-06T04:19:39;99548.59;;;19.57;55.38
16664;BME280;8445;51.270;9.434;2022-09-06T04:22:05;99544.25;;;19.56;55.82
16664;BME280;8445;51.270;9.434;2022-09-06T04:24:31;99536.19;;;19.56;56.38
16664;BME280;8445;51.270;9.434;2022-09-06T04:26:57;99535.16;;;19.65;55.80
16664;BME280;8445;51.270;9.434;2022-09-06T04:29:22;99536.97;;;19.73;55.57
16664;BME280;8445;51.270;9.434;2022-09-06T04:31:49;99539.84;;;19.72;55.47
16664;BME280;8445;51.270;9.434;2022-09-06T04:34:15;99547.22;;;19.69;55.69
16664;BME280;8445;51.270;9.434;2022-09-06T04:36:41;99554.97;;;19.64;55.94
16664;BME280;8445;51.270;9.434;2022-09-06T04:39:07;99574.41;;;19.66;57.44
16664;BME280;8445;51.270;9.434;2022-09-06T04:41:33;99584.13;;;19.76;56.46
16664;BME280;8445;51.270;9.434;2022-09-06T04:43:59;99570.69;;;19.84;56.41
16664;BME280;8445;51.270;9.434;2022-09-06T04:46:29;99565.81;;;19.96;59.95
16664;BME280;8445;51.270;9.434;2022-09-06T04:48:56;99555.34;;;20.09;56.26
16664;BME280;8445;51.270;9.434;2022-09-06T04:51:23;99541.69;;;20.19;55.88
16664;BME280;8445;51.270;9.434;2022-09-06T04:53:50;99543.38;;;20.20;55.71
16664;BME280;8445;51.270;9.434;2022-09-06T04:56:21;99544.03;;;20.22;56.66
16664;BME280;8445;51.270;9.434;2022-09-06T04:58:50;99556.69;;;20.13;56.10
16664;BME280;8445;51.270;9.434;2022-09-06T05:01:17;99555.50;;;20.08;55.71
16664;BME280;8445;51.270;9.434;2022-09-06T05:03:43;99540.13;;;20.02;55.97
16664;BME280;8445;51.270;9.434;2022-09-06T05:06:21;99539.75;;;20.05;61.04
16664;BME280;8445;51.270;9.434;2022-09-06T05:08:48;99542.84;;;19.93;56.39
16664;BME280;8445;51.270;9.434;2022-09-06T05:11:15;99564.97;;;19.87;56.33
16664;BME280;8445;51.270;9.434;2022-09-06T05:13:41;99569.00;;;19.83;56.03
16664;BME280;8445;51.270;9.434;2022-09-06T05:16:08;99584.78;;;19.78;56.55
16664;BME280;8445;51.270;9.434;2022-09-06T05:18:34;99595.69;;;19.76;56.63
16664;BME280;8445;51.270;9.434;2022-09-06T05:21:04;99599.69;;;19.80;58.21
16664;BME280;8445;51.270;9.434;2022-09-06T05:23:29;99604.91;;;19.82;57.98
16664;BME280;8445;51.270;9.434;2022-09-06T05:25:55;99611.97;;;19.91;58.03
16664;BME280;8445;51.270;9.434;2022-09-06T05:28:24;99598.53;;;19.99;57.59
16664;BME280;8445;51.270;9.434;2022-09-06T05:30:50;99586.41;;;20.04;57.36
16664;BME280;8445;51.270;9.434;2022-09-06T05:33:21;99592.56;;;20.21;57.72
16664;BME280;8445;51.270;9.434;2022-09-06T05:35:50;99596.72;;;20.32;56.87
16664;BME280;8445;51.270;9.434;2022-09-06T05:38:16;99593.63;;;20.43;56.27
16664;BME280;8445;51.270;9.434;2022-09-06T05:40:45;99598.09;;;20.59;56.38
16664;BME280;8445;51.270;9.434;2022-09-06T05:43:11;99603.88;;;20.71;56.19
16664;BME280;8445;51.270;9.434;2022-09-06T05:45:36;99610.41;;;20.85;56.78
16664;BME280;8445;51.270;9.434;2022-09-06T05:48:05;99611.47;;;20.99;58.54
16664;BME280;8445;51.270;9.434;2022-09-06T05:50:31;99606.81;;;21.16;55.94
16664;BME280;8445;51.270;9.434;2022-09-06T05:52:57;99604.50;;;21.28;55.68
16664;BME280;8445;51.270;9.434;2022-09-06T05:55:26;99611.03;;;21.33;55.57
16664;BME280;8445;51.270;9.434;2022-09-06T05:57:54;99612.34;;;21.38;55.74
16664;BME280;8445;51.270;9.434;2022-09-06T06:00:20;99608.44;;;21.40;55.52
16664;BME280;8445;51.270;9.434;2022-09-06T06:02:47;99614.31;;;21.44;55.60
16664;BME280;8445;51.270;9.434;2022-09-06T06:05:14;99611.44;;;21.45;55.75
16664;BME280;8445;51.270;9.434;2022-09-06T06:07:43;99619.53;;;21.60;56.25
16664;BME280;8445;51.270;9.434;2022-09-06T06:10:09;99619.41;;;21.77;55.75
16664;BME280;8445;51.270;9.434;2022-09-06T06:12:35;99614.13;;;21.99;55.93
16664;BME280;8445;51.270;9.434;2022-09-06T06:15:01;99617.25;;;22.17;55.89
16664;BME280;8445;51.270;9.434;2022-09-06T06:17:30;99633.16;;;22.42;56.05
16664;BME280;8445;51.270;9.434;2022-09-06T06:19:56;99629.44;;;22.43;56.41
16664;BME280;8445;51.270;9.434;2022-09-06T06:22:22;99623.38;;;22.41;56.37
16664;BME280;8445;51.270;9.434;2022-09-06T06:24:48;99613.44;;;22.42;56.58
16664;BME280;8445;51.270;9.434;2022-09-06T06:27:14;99602.94;;;22.47;56.31
16664;BME280;8445;51.270;9.434;2022-09-06T06:29:40;99595.78;;;22.39;56.24
16664;BME280;8445;51.270;9.434;2022-09-06T06:32:06;99606.13;;;22.35;56.18
16664;BME280;8445;51.270;9.434;2022-09-06T06:34:31;99604.91;;;22.38;56.09
16664;BME280;8445;51.270;9.434;2022-09-06T06:36:57;99599.59;;;22.45;55.78
16664;BME280;8445;51.270;9.434;2022-09-06T06:39:24;99600.81;;;22.42;55.89
16664;BME280;8445;51.270;9.434;2022-09-06T06:41:50;99606.03;;;22.44;55.90
16664;BME280;8445;51.270;9.434;2022-09-06T06:44:28;99600.91;;;22.49;55.90
16664;BME280;8445;51.270;9.434;2022-09-06T06:46:55;99596.44;;;22.56;56.00
16664;BME280;8445;51.270;9.434;2022-09-06T06:49:23;99590.81;;;22.73;55.95
16664;BME280;8445;51.270;9.434;2022-09-06T06:51:49;99586.47;;;22.93;55.99
16664;BME280;8445;51.270;9.434;2022-09-06T06:54:15;99583.81;;;23.22;55.65
16664;BME280;8445;51.270;9.434;2022-09-06T06:56:40;99581.34;;;23.49;55.86
16664;BME280;8445;51.270;9.434;2022-09-06T06:59:07;99590.03;;;23.73;56.10
16664;BME280;8445;51.270;9.434;2022-09-06T07:01:34;99579.84;;;24.03;55.59
16664;BME280;8445;51.270;9.434;2022-09-06T07:04:00;99574.53;;;24.30;55.40
16664;BME280;8445;51.270;9.434;2022-09-06T07:06:27;99574.41;;;24.52;55.50
16664;BME280;8445;51.270;9.434;2022-09-06T07:08:56;99588.34;;;24.55;54.95
16664;BME280;8445;51.270;9.434;2022-09-06T07:11:22;99578.88;;;24.73;54.95
16664;BME280;8445;51.270;9.434;2022-09-06T07:13:48;99577.16;;;24.65;54.72
16664;BME280;8445;51.270;9.434;2022-09-06T07:16:17;99581.31;;;24.61;54.55
16664;BME280;8445;51.270;9.434;2022-09-06T07:18:43;99586.28;;;24.51;55.58
16664;BME280;8445;51.270;9.434;2022-09-06T07:21:15;99582.56;;;24.65;54.75
16664;BME280;8445;51.270;9.434;2022-09-06T07:23:43;99587.53;;;24.55;55.54
16664;BME280;8445;51.270;9.434;2022-09-06T07:26:19;99581.94;;;24.63;53.71
16664;BME280;8445;51.270;9.434;2022-09-06T07:28:45;99582.34;;;24.67;54.91
16664;BME280;8445;51.270;9.434;2022-09-06T07:31:12;99573.44;;;24.73;55.80
16664;BME280;8445;51.270;9.434;2022-09-06T07:33:39;99577.44;;;24.97;54.97
16664;BME280;8445;51.270;9.434;2022-09-06T07:36:07;99577.66;;;25.02;54.32
16664;BME280;8445;51.270;9.434;2022-09-06T07:38:34;99584.31;;;24.86;55.32
16664;BME280;8445;51.270;9.434;2022-09-06T07:41:07;99577.22;;;24.92;53.52
16664;BME280;8445;51.270;9.434;2022-09-06T07:43:34;99578.25;;;24.84;54.67
16664;BME280;8445;51.270;9.434;2022-09-06T07:46:12;99581.75;;;24.71;53.22
16664;BME280;8445;51.270;9.434;2022-09-06T07:48:43;99591.28;;;24.54;54.03
16664;BME280;8445;51.270;9.434;2022-09-06T07:51:19;99580.91;;;24.71;53.79
16664;BME280;8445;51.270;9.434;2022-09-06T07:53:53;99589.59;;;24.60;54.27
16664;BME280;8445;51.270;9.434;2022-09-06T07:56:26;99582.88;;;24.35;54.39
16664;BME280;8445;51.270;9.434;2022-09-06T07:58:57;99590.00;;;24.50;54.18
16664;BME280;8445;51.270;9.434;2022-09-06T08:01:35;99580.69;;;24.59;53.60
16664;BME280;8445;51.270;9.434;2022-09-06T08:06:40;99584.31;;;24.93;53.90
16664;BME280;8445;51.270;9.434;2022-09-06T08:09:12;99580.56;;;25.14;53.96
16664;BME280;8445;51.270;9.434;2022-09-06T08:11:42;99583.50;;;25.26;53.25
16664;BME280;8445;51.270;9.434;2022-09-06T08:14:14;99574.94;;;25.43;53.20
16664;BME280;8445;51.270;9.434;2022-09-06T08:16:44;99579.78;;;25.48;52.73
16664;BME280;8445;51.270;9.434;2022-09-06T08:19:15;99578.28;;;25.58;52.43
16664;BME280;8445;51.270;9.434;2022-09-06T08:21:53;99586.19;;;25.73;50.97
16664;BME280;8445;51.270;9.434;2022-09-06T08:24:24;99587.22;;;25.72;52.58
16664;BME280;8445;51.270;9.434;2022-09-06T08:26:57;99584.06;;;25.89;52.12
16664;BME280;8445;51.270;9.434;2022-09-06T08:29:28;99576.94;;;25.95;51.82
16664;BME280;8445;51.270;9.434;2022-09-06T08:31:58;99579.88;;;25.93;52.33
16664;BME280;8445;51.270;9.434;2022-09-06T08:34:28;99577.53;;;26.10;52.26
16664;BME280;8445;51.270;9.434;2022-09-06T08:36:59;99573.78;;;26.11;52.44
16664;BME280;8445;51.270;9.434;2022-09-06T08:39:29;99576.19;;;26.40;51.43
16664;BME280;8445;51.270;9.434;2022-09-06T08:42:06;99581.88;;;26.70;48.93
16664;BME280;8445;51.270;9.434;2022-09-06T08:44:51;99579.19;;;27.02;47.98
16664;BME280;8445;51.270;9.434;2022-09-06T08:47:22;99584.81;;;27.07;51.58
16664;BME280;8445;51.270;9.434;2022-09-06T08:50:15;99579.41;;;27.26;49.64
16664;BME280;8445;51.270;9.434;2022-09-06T08:53:04;99576.22;;;27.61;46.96
16664;BME280;8445;51.270;9.434;2022-09-06T08:55:58;99582.66;;;27.86;46.63
16664;BME280;8445;51.270;9.434;2022-09-06T08:59:10;99576.25;;;28.17;45.55
16664;BME280;8445;51.270;9.434;2022-09-06T09:02:12;99573.41;;;28.73;45.68
16664;BME280;8445;51.270;9.434;2022-09-06T09:04:59;99567.66;;;28.81;45.34
16664;BME280;8445;51.270;9.434;2022-09-06T09:08:31;99557.13;;;29.39;44.20
16664;BME280;8445;51.270;9.434;2022-09-06T09:16:53;99566.13;;;29.64;45.33
16664;BME280;8445;51.270;9.434;2022-09-06T09:19:24;99559.69;;;29.58;49.55
16664;BME280;8445;51.270;9.434;2022-09-06T09:21:55;99562.06;;;29.66;49.50
16664;BME280;8445;51.270;9.434;2022-09-06T09:24:26;99563.63;;;29.50;49.38
16664;BME280;8445;51.270;9.434;2022-09-06T09:27:10;99559.09;;;29.56;43.28
16664;BME280;8445;51.270;9.434;2022-09-06T09:30:05;99554.84;;;29.60;43.46
16664;BME280;8445;51.270;9.434;2022-09-06T09:32:42;99563.03;;;29.48;44.68
16664;BME280;8445;51.270;9.434;2022-09-06T09:35:41;99545.25;;;29.46;42.13
16664;BME280;8445;51.270;9.434;2022-09-06T09:38:23;99555.22;;;29.40;43.27
16664;BME280;8445;51.270;9.434;2022-09-06T09:41:06;99547.91;;;28.98;42.46
16664;BME280;8445;51.270;9.434;2022-09-06T09:44:03;99545.91;;;29.05;42.09
16664;BME280;8445;51.270;9.434;2022-09-06T09:46:38;99532.50;;;28.49;45.04
16664;BME280;8445;51.270;9.434;2022-09-06T09:49:35;99535.00;;;27.83;42.48
16664;BME280;8445;51.270;9.434;2022-09-06T09:52:12;99534.41;;;27.62;44.23
16664;BME280;8445;51.270;9.434;2022-09-06T09:54:45;99532.59;;;27.56;46.75
16664;BME280;8445;51.270;9.434;2022-09-06T09:57:18;99521.22;;;27.41;45.08
16664;BME280;8445;51.270;9.434;2022-09-06T09:59:55;99522.19;;;27.28;44.96
16664;BME280;8445;51.270;9.434;2022-09-06T10:02:34;99524.00;;;27.08;44.92
16664;BME280;8445;51.270;9.434;2022-09-06T10:05:20;99519.56;;;26.89;43.44
16664;BME280;8445;51.270;9.434;2022-09-06T10:07:57;99516.69;;;26.84;45.37
16664;BME280;8445;51.270;9.434;2022-09-06T10:10:34;99514.34;;;26.87;46.89
16664;BME280;8445;51.270;9.434;2022-09-06T10:15:53;99510.81;;;26.80;46.21
16664;BME280;8445;51.270;9.434;2022-09-06T10:18:32;99513.53;;;26.87;44.81
16664;BME280;8445;51.270;9.434;2022-09-06T10:21:16;99509.41;;;26.77;43.65
16664;BME280;8445;51.270;9.434;2022-09-06T10:24:25;99502.50;;;26.82;43.35
16664;BME280;8445;51.270;9.434;2022-09-06T10:27:03;99496.28;;;26.74;44.26
16664;BME280;8445;51.270;9.434;2022-09-06T10:29:50;99498.19;;;26.99;44.59
16664;BME280;8445;51.270;9.434;2022-09-06T10:35:30;99494.28;;;27.14;43.57
16664;BME280;8445;51.270;9.434;2022-09-06T10:44:17;99484.59;;;27.25;42.80
16664;BME280;8445;51.270;9.434;2022-09-06T10:47:16;99482.41;;;27.33;42.80
16664;BME280;8445;51.270;9.434;2022-09-06T10:49:54;99490.19;;;27.30;43.02
16664;BME280;8445;51.270;9.434;2022-09-06T10:52:40;99478.19;;;27.37;42.14
16664;BME280;8445;51.270;9.434;2022-09-06T10:55:15;99485.44;;;27.44;44.51
16664;BME280;8445;51.270;9.434;2022-09-06T10:57:51;99480.19;;;27.49;43.67
16664;BME280;8445;51.270;9.434;2022-09-06T11:00:18;99483.97;;;27.48;44.85
16664;BME280;8445;51.270;9.434;2022-09-06T11:05:32;99476.03;;;27.65;41.68
16664;BME280;8445;51.270;9.434;2022-09-06T11:11:39;99475.84;;;27.97;41.71
16664;BME280;8445;51.270;9.434;2022-09-06T11:14:12;99473.72;;;27.99;42.80
16664;BME280;8445;51.270;9.434;2022-09-06T11:16:52;99479.09;;;28.06;41.00
16664;BME280;8445;51.270;9.434;2022-09-06T11:28:20;99459.56;;;28.28;41.33
16664;BME280;8445;51.270;9.434;2022-09-06T11:30:52;99458.16;;;28.37;41.33
16664;BME280;8445;51.270;9.434;2022-09-06T11:33:32;99462.59;;;28.50;39.11
16664;BME280;8445;51.270;9.434;2022-09-06T11:36:37;99459.78;;;28.68;37.92
16664;BME280;8445;51.270;9.434;2022-09-06T11:39:07;99459.28;;;28.48;39.01
16664;BME280;8445;51.270;9.434;2022-09-06T11:41:40;99457.97;;;28.50;38.15
16664;BME280;8445;51.270;9.434;2022-09-06T11:44:09;99457.41;;;28.60;42.68
16664;BME280;8445;51.270;9.434;2022-09-06T11:51:44;99451.44;;;28.94;42.20
16664;BME280;8445;51.270;9.434;2022-09-06T11:54:25;99454.06;;;29.01;37.24
16664;BME280;8445;51.270;9.434;2022-09-06T11:57:14;99444.81;;;29.13;36.43
16664;BME280;8445;51.270;9.434;2022-09-06T12:00:05;99446.69;;;29.25;36.66
16664;BME280;8445;51.270;9.434;2022-09-06T12:02:39;99450.50;;;29.12;37.79
16664;BME280;8445;51.270;9.434;2022-09-06T12:07:35;99451.31;;;29.24;41.37
16664;BME280;8445;51.270;9.434;2022-09-06T12:12:57;99446.22;;;29.28;40.81
16664;BME280;8445;51.270;9.434;2022-09-06T12:17:55;99435.28;;;29.52;41.41
16664;BME280;8445;51.270;9.434;2022-09-06T12:26:03;99428.28;;;29.56;40.31
16664;BME280;8445;51.270;9.434;2022-09-06T12:28:49;99421.59;;;29.76;35.39
16664;BME280;8445;51.270;9.434;2022-09-06T12:34:20;99417.16;;;29.57;34.31
16664;BME280;8445;51.270;9.434;2022-09-06T12:37:07;99420.06;;;29.80;35.67
16664;BME280;8445;51.270;9.434;2022-09-06T12:39:36;99410.59;;;29.70;41.18
16664;BME280;8445;51.270;9.434;2022-09-06T12:42:10;99407.53;;;29.67;37.09
16664;BME280;8445;51.270;9.434;2022-09-06T12:44:43;99399.91;;;29.81;36.32
16664;BME280;8445;51.270;9.434;2022-09-06T12:47:31;99399.50;;;30.18;35.47
16664;BME280;8445;51.270;9.434;2022-09-06T12:50:18;99411.09;;;30.42;34.97
16664;BME280;8445;51.270;9.434;2022-09-06T12:52:52;99409.13;;;30.55;35.65
16664;BME280;8445;51.270;9.434;2022-09-06T12:55:26;99398.13;;;30.67;37.76
16664;BME280;8445;51.270;9.434;2022-09-06T12:57:57;99399.19;;;30.66;39.97
16664;BME280;8445;51.270;9.434;2022-09-06T13:00:36;99390.75;;;30.50;34.48
16664;BME280;8445;51.270;9.434;2022-09-06T13:05:55;99387.47;;;30.48;38.35
16664;BME280;8445;51.270;9.434;2022-09-06T13:08:56;99385.81;;;30.47;33.14
16664;BME280;8445;51.270;9.434;2022-09-06T13:11:33;99389.59;;;30.46;34.57
16664;BME280;8445;51.270;9.434;2022-09-06T13:14:11;99389.03;;;30.61;36.67
16664;BME280;8445;51.270;9.434;2022-09-06T13:16:47;99377.44;;;30.71;36.09
16664;BME280;8445;51.270;9.434;2022-09-06T13:19:39;99380.41;;;30.86;33.65
16664;BME280;8445;51.270;9.434;2022-09-06T13:22:09;99378.03;;;30.73;36.37
16664;BME280;8445;51.270;9.434;2022-09-06T13:24:45;99367.31;;;30.88;35.27
16664;BME280;8445;51.270;9.434;2022-09-06T13:27:33;99367.78;;;31.02;33.38
16664;BME280;8445;51.270;9.434;2022-09-06T13:32:29;99361.13;;;30.76;38.45
16664;BME280;8445;51.270;9.434;2022-09-06T13:34:59;99360.22;;;30.87;36.84
16664;BME280;8445;51.270;9.434;2022-09-06T13:37:30;99358.78;;;31.02;37.47
16664;BME280;8445;51.270;9.434;2022-09-06T13:39:59;99365.06;;;31.19;38.86
16664;BME280;8445;51.270;9.434;2022-09-06T13:42:34;99362.34;;;31.25;33.75
16664;BME280;8445;51.270;9.434;2022-09-06T13:45:26;99358.28;;;31.49;32.80
16664;BME280;8445;51.270;9.434;2022-09-06T13:47:53;99359.94;;;31.50;38.48
16664;BME280;8445;51.270;9.434;2022-09-06T13:50:22;99353.75;;;31.60;37.19
16664;BME280;8445;51.270;9.434;2022-09-06T13:52:50;99357.19;;;31.73;38.32
16664;BME280;8445;51.270;9.434;2022-09-06T13:55:22;99349.91;;;31.84;35.17
16664;BME280;8445;51.270;9.434;2022-09-06T13:57:50;99350.41;;;31.75;38.16
16664;BME280;8445;51.270;9.434;2022-09-06T14:00:16;99345.75;;;31.76;38.01
16664;BME280;8445;51.270;9.434;2022-09-06T14:02:43;99343.94;;;31.64;37.37
16664;BME280;8445;51.270;9.434;2022-09-06T14:05:11;99343.13;;;31.64;36.52
16664;BME280;8445;51.270;9.434;2022-09-06T14:07:39;99341.16;;;31.59;37.22
16664;BME280;8445;51.270;9.434;2022-09-06T14:10:06;99337.56;;;31.54;37.86
16664;BME280;8445;51.270;9.434;2022-09-06T14:12:32;99340.06;;;31.60;37.36
16664;BME280;8445;51.270;9.434;2022-09-06T14:15:00;99338.69;;;31.58;37.43
16664;BME280;8445;51.270;9.434;2022-09-06T14:17:27;99346.72;;;31.42;37.40
16664;BME280;8445;51.270;9.434;2022-09-06T14:19:54;99342.66;;;31.45;37.76
16664;BME280;8445;51.270;9.434;2022-09-06T14:22:21;99340.53;;;31.52;37.17
16664;BME280;8445;51.270;9.434;2022-09-06T14:24:48;99340.59;;;31.57;37.63
16664;BME280;8445;51.270;9.434;2022-09-06T14:27:15;99334.25;;;31.52;37.17
16664;BME280;8445;51.270;9.434;2022-09-06T14:29:43;99334.19;;;31.46;37.60
16664;BME280;8445;51.270;9.434;2022-09-06T14:32:09;99341.31;;;31.47;37.19
16664;BME280;8445;51.270;9.434;2022-09-06T14:34:36;99339.78;;;31.57;36.55
16664;BME280;8445;51.270;9.434;2022-09-06T14:37:03;99334.47;;;31.45;36.84
16664;BME280;8445;51.270;9.434;2022-09-06T14:39:34;99332.44;;;31.35;32.83
16664;BME280;8445;51.270;9.434;2022-09-06T14:42:01;99340.31;;;31.31;37.33
16664;BME280;8445;51.270;9.434;2022-09-06T14:44:27;99334.66;;;31.38;36.63
16664;BME280;8445;51.270;9.434;2022-09-06T14:46:57;99331.41;;;31.41;36.71
16664;BME280;8445;51.270;9.434;2022-09-06T14:49:25;99319.00;;;31.56;36.62
16664;BME280;8445;51.270;9.434;2022-09-06T14:51:52;99315.41;;;31.55;36.44
16664;BME280;8445;51.270;9.434;2022-09-06T14:54:19;99313.53;;;31.56;36.60
16664;BME280;8445;51.270;9.434;2022-09-06T14:56:47;99307.88;;;31.40;36.48
16664;BME280;8445;51.270;9.434;2022-09-06T14:59:15;99300.66;;;31.29;35.96
16664;BME280;8445;51.270;9.434;2022-09-06T15:01:42;99301.78;;;31.33;36.67
16664;BME280;8445;51.270;9.434;2022-09-06T15:04:10;99298.41;;;31.48;36.31
16664;BME280;8445;51.270;9.434;2022-09-06T15:06:39;99300.47;;;31.63;35.85